createdAt,value
2022-10-28T00:00:03.012Z,14.97
2022-10-28T00:06:06.224Z,15.50
2022-10-28T00:12:03.867Z,16.04
2022-10-28T00:17:38.016Z,16.06
2022-10-28T00:20:24.285Z,16.11
2022-10-28T00:22:59.637Z,16.11
2022-10-28T00:25:49.537Z,15.58
2022-10-28T00:28:26.933Z,15.84
2022-10-28T00:31:09.081Z,16.11
2022-10-28T00:33:54.715Z,15.91
2022-10-28T00:36:33.542Z,15.23
2022-10-28T00:39:15.168Z,15.54
2022-10-28T00:42:00.120Z,15.59
2022-10-28T00:48:05.037Z,16.16
2022-10-28T00:53:57.086Z,16.17
2022-10-28T00:56:41.534Z,15.08
2022-10-28T00:59:54.471Z,15.45
2022-10-28T01:02:45.138Z,15.70
2022-10-28T01:05:51.019Z,15.47
2022-10-28T01:11:54.499Z,15.13
2022-10-28T01:15:04.716Z,15.39
2022-10-28T01:18:10.894Z,15.87
2022-10-28T01:21:20.155Z,15.81
2022-10-28T01:24:18.818Z,15.36
2022-10-28T01:27:41.087Z,15.47
2022-10-28T01:30:28.816Z,15.12
2022-10-28T01:45:36.050Z,15.55
2022-10-28T01:48:45.939Z,15.52
2022-10-28T01:51:25.170Z,15.47
2022-10-28T01:54:16.857Z,14.45
2022-10-28T01:56:59.370Z,15.38
2022-10-28T01:59:56.653Z,15.17
2022-10-28T02:02:39.835Z,14.30
2022-10-28T02:06:01.145Z,14.31
2022-10-28T02:09:19.125Z,14.22
2022-10-28T02:12:30.672Z,14.24
2022-10-28T02:15:41.187Z,15.24
2022-10-28T02:21:28.513Z,15.08
2022-10-28T02:24:28.369Z,14.33
2022-10-28T02:33:19.363Z,14.92
2022-10-28T02:36:05.111Z,15.21
2022-10-28T02:38:48.380Z,15.22
2022-10-28T02:41:51.865Z,15.19
2022-10-28T02:48:14.758Z,14.37
2022-10-28T02:54:25.646Z,15.13
2022-10-28T02:57:04.822Z,14.12
2022-10-28T02:59:32.872Z,14.89
2022-10-28T03:02:20.647Z,14.87
2022-10-28T03:04:52.422Z,14.53
2022-10-28T03:07:19.920Z,14.66
2022-10-28T03:10:16.884Z,14.14
2022-10-28T03:12:50.594Z,15.08
2022-10-28T03:15:31.092Z,14.80
2022-10-28T03:18:16.693Z,14.80
2022-10-28T03:20:46.950Z,14.62
2022-10-28T03:23:30.872Z,15.01
2022-10-28T03:25:57.826Z,14.85
2022-10-28T03:31:25.253Z,14.71
2022-10-28T03:34:18.741Z,13.83
2022-10-28T03:36:49.039Z,14.88
2022-10-28T03:39:22.629Z,14.86
2022-10-28T03:42:08.528Z,13.56
2022-10-28T03:44:51.745Z,14.85
2022-10-28T03:47:27.162Z,14.69
2022-10-28T03:49:59.162Z,14.02
2022-10-28T03:52:41.024Z,14.23
2022-10-28T03:55:29.637Z,14.05
2022-10-28T03:58:01.328Z,13.77
2022-10-28T04:01:02.093Z,14.75
2022-10-28T04:03:54.919Z,14.09
2022-10-28T04:06:37.867Z,14.49
2022-10-28T04:09:21.465Z,14.45
2022-10-28T04:12:12.619Z,14.63
2022-10-28T04:17:43.735Z,13.64
2022-10-28T04:20:28.629Z,14.30
2022-10-28T04:23:05.925Z,14.46
2022-10-28T04:25:41.511Z,13.91
2022-10-28T04:28:36.731Z,13.42
2022-10-28T04:31:30.734Z,14.48
2022-10-28T04:37:05.597Z,14.03
2022-10-28T04:42:34.071Z,13.49
2022-10-28T04:45:11.792Z,14.40
2022-10-28T04:50:35.450Z,13.97
2022-10-28T04:53:17.351Z,13.49
2022-10-28T04:55:58.129Z,14.37
2022-10-28T04:59:06.748Z,13.98
2022-10-28T05:01:45.997Z,13.39
2022-10-28T05:04:26.427Z,14.13
2022-10-28T05:06:59.278Z,14.34
2022-10-28T05:09:44.986Z,13.32
2022-10-28T05:12:19.420Z,13.88
2022-10-28T05:14:54.391Z,13.92
2022-10-28T05:17:29.632Z,13.72
2022-10-28T05:20:04.170Z,14.31
2022-10-28T05:22:40.515Z,13.31
2022-10-28T05:25:16.777Z,13.67
2022-10-28T05:27:48.431Z,13.71
2022-10-28T05:30:17.446Z,13.31
2022-10-28T05:32:44.332Z,14.26
2022-10-28T05:35:20.503Z,14.02
2022-10-28T05:37:47.950Z,14.11
2022-10-28T05:40:52.173Z,13.27
2022-10-28T05:43:22.794Z,13.62
2022-10-28T05:46:00.184Z,13.64
2022-10-28T05:48:27.929Z,14.07
2022-10-28T05:51:06.133Z,14.13
2022-10-28T05:53:44.286Z,13.84
2022-10-28T05:56:17.313Z,13.09
2022-10-28T05:58:55.263Z,14.10
2022-10-28T06:01:28.220Z,13.13
2022-10-28T06:04:03.497Z,13.66
2022-10-28T06:06:32.293Z,13.57
2022-10-28T06:09:07.442Z,14.11
2022-10-28T06:11:35.143Z,13.49
2022-10-28T06:14:28.207Z,13.84
2022-10-28T06:17:10.139Z,13.83
2022-10-28T06:19:44.036Z,13.97
2022-10-28T06:22:37.418Z,13.99
2022-10-28T06:25:10.105Z,13.24
2022-10-28T06:27:41.795Z,13.29
2022-10-28T06:30:26.252Z,13.71
2022-10-28T06:33:03.590Z,12.93
2022-10-28T06:35:49.902Z,13.94
2022-10-28T06:38:27.393Z,12.92
2022-10-28T06:41:06.366Z,13.90
2022-10-28T06:43:52.630Z,13.88
2022-10-28T06:46:37.489Z,13.26
2022-10-28T06:49:10.067Z,13.23
2022-10-28T06:51:54.748Z,13.34
2022-10-28T06:54:43.251Z,13.91
2022-10-28T06:57:24.493Z,13.47
2022-10-28T07:03:29.066Z,12.98
2022-10-28T07:05:55.838Z,13.51
2022-10-28T07:08:46.320Z,14.14
2022-10-28T07:11:33.834Z,14.21
2022-10-28T07:14:09.911Z,14.27
2022-10-28T07:16:38.226Z,14.30
2022-10-28T07:22:03.698Z,13.72
2022-10-28T07:25:00.436Z,13.52
2022-10-28T07:28:00.886Z,14.59
2022-10-28T07:30:42.042Z,14.43
2022-10-28T07:33:39.252Z,13.75
2022-10-28T07:38:55.208Z,14.34
2022-10-28T07:41:35.013Z,14.55
2022-10-28T07:44:01.716Z,14.11
2022-10-28T07:46:38.321Z,14.93
2022-10-28T07:52:04.472Z,15.03
2022-10-28T07:54:45.785Z,14.31
2022-10-28T07:57:19.581Z,15.19
2022-10-28T08:03:21.073Z,14.87
2022-10-28T08:13:12.265Z,14.58
2022-10-28T08:15:41.540Z,15.72
2022-10-28T08:18:14.191Z,14.84
2022-10-28T08:20:44.784Z,15.61
2022-10-28T08:23:14.341Z,15.42
2022-10-28T08:46:50.260Z,16.15
2022-10-28T08:53:07.109Z,16.50
2022-10-28T08:55:43.971Z,15.65
2022-10-28T08:58:40.002Z,16.39
2022-10-28T09:01:41.896Z,16.22
2022-10-28T09:04:39.044Z,16.28
2022-10-28T09:07:22.057Z,15.98
2022-10-28T09:09:52.808Z,15.89
2022-10-28T09:12:41.038Z,16.89
2022-10-28T09:16:02.921Z,16.84
2022-10-28T09:21:51.020Z,15.99
2022-10-28T09:28:00.944Z,15.97
2022-10-28T09:31:14.899Z,16.13
2022-10-28T09:34:05.075Z,17.10
2022-10-28T09:36:41.597Z,17.11
2022-10-28T09:42:28.207Z,16.87
2022-10-28T09:45:14.207Z,16.88
2022-10-28T09:48:18.262Z,17.34
2022-10-28T09:51:16.376Z,16.43
2022-10-28T10:00:37.763Z,17.02
2022-10-28T10:03:18.916Z,17.11
2022-10-28T10:06:14.783Z,17.68
2022-10-28T10:08:50.688Z,16.81
2022-10-28T10:11:34.373Z,17.49
2022-10-28T10:14:24.572Z,17.38
2022-10-28T10:17:02.794Z,17.20
2022-10-28T10:20:11.447Z,17.73
2022-10-28T10:23:25.399Z,17.91
2022-10-28T10:26:15.246Z,17.81
2022-10-28T10:32:36.378Z,18.36
2022-10-28T10:35:28.474Z,17.54
2022-10-28T10:41:46.271Z,18.24
2022-10-28T10:44:44.495Z,17.95
2022-10-28T10:47:33.903Z,18.59
2022-10-28T10:50:42.364Z,18.45
2022-10-28T10:53:27.313Z,18.87
2022-10-28T10:56:14.704Z,18.27
2022-10-28T10:58:50.572Z,18.12
2022-10-28T11:01:30.199Z,18.48
2022-10-28T11:04:19.190Z,19.09
2022-10-28T11:07:38.205Z,18.43
2022-10-28T11:10:50.550Z,19.27
2022-10-28T11:13:33.746Z,18.67
2022-10-28T11:16:32.584Z,19.14
2022-10-28T11:19:37.509Z,18.64
2022-10-28T11:22:39.627Z,19.57
2022-10-28T11:25:35.740Z,18.84
2022-10-28T11:28:45.073Z,19.06
2022-10-28T11:31:47.341Z,19.02
2022-10-28T11:34:45.490Z,20.15
2022-10-28T11:37:35.215Z,19.86
2022-10-28T11:40:25.580Z,20.42
2022-10-28T11:43:15.029Z,20.18
2022-10-28T11:45:51.538Z,20.49
2022-10-28T11:48:39.457Z,19.83
2022-10-28T11:51:37.179Z,20.40
2022-10-28T11:54:27.668Z,20.39
2022-10-28T11:57:17.881Z,20.01
2022-10-28T12:00:23.762Z,20.27
2022-10-28T12:03:14.852Z,19.73
2022-10-28T12:05:52.973Z,20.44
2022-10-28T12:08:48.383Z,20.43
2022-10-28T12:11:37.009Z,20.39
2022-10-28T12:14:26.187Z,19.48
2022-10-28T12:17:17.415Z,19.63
2022-10-28T12:19:57.521Z,19.48
2022-10-28T12:22:49.259Z,20.20
2022-10-28T12:28:41.389Z,20.26
2022-10-28T12:31:29.140Z,19.38
2022-10-28T12:34:03.258Z,20.17
2022-10-28T12:36:35.427Z,19.94
2022-10-28T12:39:22.078Z,20.38
2022-10-28T12:42:16.914Z,20.23
2022-10-28T12:44:53.722Z,20.52
2022-10-28T12:47:30.226Z,20.58
2022-10-28T12:50:11.375Z,20.62
2022-10-28T12:52:56.341Z,20.67
2022-10-28T12:55:41.990Z,20.19
2022-10-28T12:58:37.735Z,19.91
2022-10-28T13:01:29.634Z,20.80
2022-10-28T13:04:32.370Z,20.63
2022-10-28T13:07:34.108Z,20.34
2022-10-28T13:10:17.194Z,20.03
2022-10-28T13:13:30.479Z,20.24
2022-10-28T13:16:28.487Z,20.27
2022-10-28T13:22:49.711Z,20.90
2022-10-28T13:26:07.568Z,20.30
2022-10-28T13:28:51.184Z,19.98
2022-10-28T13:31:59.319Z,20.34
2022-10-28T13:34:45.559Z,20.61
2022-10-28T13:37:35.827Z,19.92
2022-10-28T13:40:53.461Z,19.56
2022-10-28T13:50:37.835Z,19.99
2022-10-28T13:53:38.352Z,20.23
2022-10-28T13:56:53.796Z,19.83
2022-10-28T13:59:36.269Z,20.10
2022-10-28T14:02:36.258Z,20.03
2022-10-28T14:05:30.668Z,19.66
2022-10-28T14:08:05.513Z,19.47
2022-10-28T14:10:59.024Z,19.20
2022-10-28T14:13:44.532Z,19.87
2022-10-28T14:16:30.087Z,19.54
2022-10-28T14:19:35.819Z,18.96
2022-10-28T14:22:20.796Z,18.85
2022-10-28T14:25:00.751Z,19.58
2022-10-28T14:27:43.500Z,19.79
2022-10-28T14:30:31.231Z,19.43
2022-10-28T14:33:27.360Z,18.88
2022-10-28T14:36:21.030Z,18.82
2022-10-28T14:39:28.460Z,19.27
2022-10-28T14:42:31.430Z,19.43
2022-10-28T14:45:36.760Z,18.75
2022-10-28T14:48:51.261Z,18.68
2022-10-28T14:51:46.035Z,19.08
2022-10-28T14:54:23.929Z,18.97
2022-10-28T14:57:15.642Z,18.69
2022-10-28T14:59:54.983Z,19.53
2022-10-28T15:02:29.565Z,19.53
2022-10-28T15:05:05.006Z,19.27
2022-10-28T15:07:37.836Z,19.45
2022-10-28T15:10:26.322Z,19.47
2022-10-28T15:16:54.313Z,19.40
2022-10-28T15:19:43.134Z,18.42
2022-10-28T15:22:48.487Z,18.68
2022-10-28T15:25:30.432Z,18.29
2022-10-28T15:28:01.874Z,18.49
2022-10-28T15:31:07.407Z,19.16
2022-10-28T15:33:49.019Z,19.10
2022-10-28T15:50:30.127Z,18.73
2022-10-28T16:16:49.616Z,18.37
2022-10-28T16:20:02.095Z,17.51
2022-10-28T16:22:58.694Z,18.31
2022-10-28T16:58:26.131Z,17.48
2022-10-28T17:02:02.960Z,17.92
2022-10-28T17:04:23.998Z,17.98
2022-10-28T17:13:39.885Z,17.68
2022-10-28T17:16:21.730Z,17.82
2022-10-28T17:21:46.113Z,17.60
2022-10-28T17:24:26.528Z,16.96
2022-10-28T17:26:58.886Z,17.83
2022-10-28T17:29:49.240Z,17.38
2022-10-28T17:32:26.260Z,16.98
2022-10-28T17:36:24.164Z,17.74
2022-10-28T17:39:00.264Z,16.69
2022-10-28T17:44:47.749Z,16.96
2022-10-28T17:47:27.972Z,16.84
2022-10-28T17:50:19.268Z,16.65
2022-10-28T18:05:26.452Z,17.51
2022-10-28T18:08:32.605Z,16.55
2022-10-28T18:11:58.740Z,16.58
2022-10-28T18:14:37.722Z,17.54
2022-10-28T18:17:24.801Z,16.71
2022-10-28T18:20:24.033Z,17.58
2022-10-28T18:23:35.061Z,16.96
2022-10-28T18:26:22.666Z,17.52
2022-10-28T18:29:08.205Z,16.63
2022-10-28T18:31:48.640Z,17.54
2022-10-28T18:37:29.769Z,17.26
2022-10-28T18:40:36.971Z,17.49
2022-10-28T18:43:20.643Z,17.25
2022-10-28T18:51:46.230Z,16.43
2022-10-28T18:57:43.892Z,17.36
2022-10-28T19:13:27.164Z,17.18
2022-10-28T19:19:16.709Z,17.10
2022-10-28T19:25:18.329Z,16.95
2022-10-28T19:34:31.887Z,16.79
2022-10-28T19:47:13.248Z,16.77
2022-10-28T19:51:09.896Z,16.72
2022-10-28T19:57:55.221Z,16.47
2022-10-28T20:00:33.916Z,15.81
2022-10-28T20:13:24.916Z,16.71
2022-10-28T20:16:22.793Z,16.65
2022-10-28T20:19:20.922Z,16.08
2022-10-28T20:22:20.965Z,16.17
2022-10-28T20:24:59.689Z,16.19
2022-10-28T20:27:46.376Z,15.71
2022-10-28T20:30:22.341Z,16.10
2022-10-28T20:36:32.009Z,15.30
2022-10-28T20:39:29.348Z,15.34
2022-10-28T20:42:36.049Z,16.14
2022-10-28T20:45:45.192Z,15.20
2022-10-28T20:48:27.194Z,16.14
2022-10-28T20:51:06.133Z,15.01
2022-10-28T20:54:15.929Z,16.09
2022-10-28T20:57:05.447Z,15.77
2022-10-28T20:59:57.144Z,15.37
2022-10-28T21:06:01.642Z,15.50
2022-10-28T21:25:46.750Z,14.45
2022-10-28T21:44:03.597Z,14.25
2022-10-28T21:46:43.137Z,14.26
2022-10-28T21:49:36.616Z,14.93
2022-10-28T21:52:40.935Z,14.07
2022-10-28T21:56:00.972Z,14.84
2022-10-28T22:02:20.945Z,14.11
2022-10-28T22:11:50.980Z,14.81
2022-10-28T22:25:20.935Z,14.63
2022-10-28T22:31:37.401Z,14.56
2022-10-28T22:38:16.463Z,13.49
2022-10-28T22:44:23.326Z,14.43
2022-10-28T22:47:42.539Z,13.73
2022-10-28T22:50:50.965Z,14.35
2022-10-28T22:57:21.821Z,14.02
2022-10-28T23:00:11.963Z,13.99
2022-10-28T23:20:19.338Z,13.06
2022-10-28T23:32:31.205Z,13.21
2022-10-28T23:35:32.259Z,13.06
2022-10-28T23:38:05.626Z,13.23
2022-10-28T23:41:14.682Z,13.82
2022-10-28T23:44:15.082Z,13.80
2022-10-28T23:47:45.211Z,13.45
2022-10-28T23:57:07.698Z,13.29
